Time;durP1;ratioP1;P1;durP2;ratioP2;P2;SDS_P1;SDS_P2;PMS_P1;PMS_P2;Temp;Humidity;BMP_temperature;BMP_pressure;BME280_temperature;BME280_humidity;BME280_pressure;Samples;Min_cycle;Max_cycle;Signal;HPM_P1;HPM_P2
2021/08/21 00:01:20;;;;;;;3.72;3.42;;;;;;;19.37;66.67;96929.59;5043312;28;20190;-64
2021/08/21 00:03:45;;;;;;;3.33;3.03;;;;;;;19.38;66.63;96930.38;5048970;28;20190;-64
2021/08/21 00:06:11;;;;;;;3.85;3.47;;;;;;;19.35;66.75;96921.09;5049172;28;20206;-64
2021/08/21 00:08:36;;;;;;;5.75;3.33;;;;;;;19.31;66.82;96922.72;5049873;28;20220;-64
2021/08/21 00:11:02;;;;;;;5.80;3.72;;;;;;;19.38;66.60;96923.22;5047454;28;20636;-65
2021/08/21 00:13:28;;;;;;;4.00;3.45;;;;;;;19.24;67.03;96918.78;5035198;28;20199;-64
2021/08/21 00:15:54;;;;;;;4.37;3.50;;;;;;;19.27;66.93;96923.56;5047292;28;20183;-64
2021/08/21 00:18:20;;;;;;;5.40;3.33;;;;;;;19.27;67.08;96918.25;5035952;28;20762;-64
2021/08/21 00:20:45;;;;;;;3.60;3.30;;;;;;;19.22;67.26;96915.63;5032636;28;20181;-65
2021/08/21 00:23:11;;;;;;;3.75;3.45;;;;;;;19.29;67.10;96916.09;5039518;28;20264;-64
2021/08/21 00:25:36;;;;;;;3.88;3.50;;;;;;;19.28;67.29;96919.84;5043601;28;20228;-64
2021/08/21 00:28:02;;;;;;;3.80;3.40;;;;;;;19.26;67.21;96921.97;5035988;28;20186;-65
2021/08/21 00:30:27;;;;;;;3.63;3.33;;;;;;;19.11;68.11;96921.00;5037042;28;20218;-64
2021/08/21 00:32:53;;;;;;;4.10;3.70;;;;;;;19.22;67.44;96916.44;5038930;28;20197;-65
2021/08/21 00:35:18;;;;;;;4.13;3.67;;;;;;;19.37;67.26;96912.84;5041418;28;20187;-64
2021/08/21 00:37:44;;;;;;;3.65;3.35;;;;;;;19.39;66.73;96908.06;5043348;28;20253;-65
2021/08/21 00:40:10;;;;;;;4.75;3.55;;;;;;;19.22;67.50;96912.97;5040215;28;20314;-64
2021/08/21 00:42:36;;;;;;;5.57;4.03;;;;;;;18.98;68.46;96911.03;5038658;28;20274;-65
2021/08/21 00:45:04;;;;;;;4.13;3.50;;;;;;;19.09;68.05;96909.09;5034407;28;20610;-65
2021/08/21 00:47:29;;;;;;;4.03;3.50;;;;;;;18.94;68.24;96915.31;5047910;28;20186;-65
2021/08/21 00:49:55;;;;;;;4.80;3.80;;;;;;;18.93;68.58;96919.03;5049181;28;20503;-65
2021/08/21 00:52:23;;;;;;;4.23;3.50;;;;;;;18.79;69.04;96912.75;5039223;28;20202;-65
2021/08/21 00:54:49;;;;;;;4.40;4.00;;;;;;;18.61;69.60;96906.19;5032165;28;20215;-64
2021/08/21 00:57:17;;;;;;;3.93;3.60;;;;;;;18.63;69.75;96906.72;5047999;28;20236;-64
2021/08/21 00:59:45;;;;;;;4.03;3.63;;;;;;;18.48;70.22;96904.13;5039393;28;20634;-64
2021/08/21 01:02:12;;;;;;;4.43;3.50;;;;;;;18.46;70.56;96900.94;5038416;28;20178;-64
2021/08/21 01:04:39;;;;;;;3.63;3.33;;;;;;;18.43;70.56;96908.69;5040942;28;20588;-64
2021/08/21 01:07:09;;;;;;;4.73;3.43;;;;;;;18.48;70.39;96901.50;5038297;28;20197;-64
2021/08/21 01:09:36;;;;;;;4.23;3.30;;;;;;;18.35;70.93;96907.38;5037711;28;20281;-64
2021/08/21 01:12:05;;;;;;;3.80;3.50;;;;;;;18.46;70.54;96906.25;5036732;28;20190;-65
2021/08/21 01:14:31;;;;;;;4.03;3.63;;;;;;;18.52;70.46;96896.41;5039030;28;20195;-65
2021/08/21 01:16:57;;;;;;;4.73;3.60;;;;;;;18.52;70.78;96902.53;5040984;28;20612;-64
2021/08/21 01:19:24;;;;;;;5.40;4.10;;;;;;;18.56;70.93;96890.31;5042220;28;20185;-63
2021/08/21 01:21:50;;;;;;;6.80;4.20;;;;;;;18.58;70.83;96896.16;5042208;28;20185;-63
2021/08/21 01:24:15;;;;;;;5.73;3.67;;;;;;;18.64;70.55;96900.34;5049491;28;20546;-64
2021/08/21 01:26:57;;;;;;;5.37;4.40;;;;;;;18.79;70.35;96894.16;5041487;28;20718;-64
2021/08/21 01:29:23;;;;;;;5.13;3.87;;;;;;;18.80;70.02;96895.75;5041337;28;20187;-64
2021/08/21 01:31:49;;;;;;;4.13;3.70;;;;;;;18.68;70.38;96900.59;5043009;28;20228;-64
2021/08/21 01:34:15;;;;;;;4.40;3.73;;;;;;;18.81;70.00;96893.88;5041535;28;20213;-65
2021/08/21 01:36:42;;;;;;;4.60;4.03;;;;;;;18.71;70.17;96889.44;5043172;28;20221;-64
2021/08/21 01:39:08;;;;;;;4.30;3.90;;;;;;;18.62;70.41;96893.72;5034327;28;20198;-64
2021/08/21 01:41:34;;;;;;;4.80;4.30;;;;;;;18.60;70.67;96895.88;5045143;28;20279;-64
2021/08/21 01:43:59;;;;;;;4.33;3.93;;;;;;;18.55;71.06;96893.25;5038139;28;20179;-65
2021/08/21 01:46:25;;;;;;;5.13;4.10;;;;;;;18.47;70.96;96889.28;5040263;28;20206;-65
2021/08/21 01:48:50;;;;;;;4.80;4.10;;;;;;;18.44;71.50;96891.69;5050462;28;20227;-65
2021/08/21 01:51:16;;;;;;;4.60;4.13;;;;;;;18.35;71.82;96895.97;5040300;28;20185;-65
2021/08/21 01:53:41;;;;;;;4.40;4.00;;;;;;;18.45;71.27;96893.25;5045520;28;20651;-65
2021/08/21 01:56:08;;;;;;;5.37;4.03;;;;;;;18.21;72.28;96890.47;5044172;28;20186;-65
2021/08/21 01:58:34;;;;;;;4.87;4.30;;;;;;;18.21;72.25;96888.63;5035479;28;20175;-65
2021/08/21 02:01:00;;;;;;;6.43;4.23;;;;;;;18.28;72.16;96891.75;5033201;28;20673;-64
2021/08/21 02:03:25;;;;;;;4.47;4.03;;;;;;;18.45;71.13;96891.41;5043314;28;20183;-65
2021/08/21 02:05:51;;;;;;;4.73;4.23;;;;;;;18.39;71.38;96897.78;5039833;28;20551;-65
2021/08/21 02:08:17;;;;;;;5.33;4.10;;;;;;;18.49;70.87;96886.34;5041008;28;20545;-64
2021/08/21 02:10:43;;;;;;;4.33;3.93;;;;;;;18.42;71.35;96891.97;5041327;28;20186;-65
2021/08/21 02:13:08;;;;;;;6.30;4.53;;;;;;;18.37;71.53;96892.00;5037487;28;20190;-65
2021/08/21 02:15:33;;;;;;;6.47;4.43;;;;;;;18.41;71.26;96884.25;5038942;28;20194;-64
2021/08/21 02:17:59;;;;;;;5.13;4.63;;;;;;;18.22;72.01;96889.41;5040584;28;20266;-65
2021/08/21 02:20:25;;;;;;;4.43;4.03;;;;;;;18.15;72.22;96889.69;5040675;28;20216;-65
2021/08/21 02:22:51;;;;;;;6.93;4.83;;;;;;;18.12;72.43;96886.78;5049109;28;20662;-64
2021/08/21 02:25:18;;;;;;;5.67;4.93;;;;;;;18.10;72.50;96887.06;5045701;28;20224;-65
2021/08/21 02:27:57;;;;;;;5.63;4.57;;;;;;;18.02;72.54;96884.97;5037611;28;20195;-65
2021/08/21 02:30:23;;;;;;;5.10;4.57;;;;;;;17.98;72.95;96885.78;5045110;28;20183;-65
2021/08/21 02:32:48;;;;;;;4.73;4.23;;;;;;;17.90;73.25;96884.47;5044871;28;20191;-65
2021/08/21 02:35:13;;;;;;;4.83;4.33;;;;;;;17.94;73.19;96884.75;5042811;28;20655;-65
2021/08/21 02:37:39;;;;;;;5.80;4.50;;;;;;;17.82;73.66;96875.25;5042988;28;20186;-65
2021/08/21 02:40:05;;;;;;;5.17;4.47;;;;;;;17.89;72.99;96876.81;5053211;28;20271;-65
2021/08/21 02:42:31;;;;;;;4.60;4.10;;;;;;;17.80;73.37;96882.66;5048448;28;20198;-65
2021/08/21 02:44:56;;;;;;;4.70;4.10;;;;;;;17.85;73.37;96879.19;5036380;28;20210;-65
2021/08/21 02:47:21;;;;;;;4.53;4.07;;;;;;;17.74;74.04;96877.63;5048411;28;20191;-65
2021/08/21 02:49:47;;;;;;;5.87;4.30;;;;;;;17.76;73.92;96865.72;5034886;28;20656;-65
2021/08/21 02:52:12;;;;;;;4.40;4.00;;;;;;;17.70;73.99;96868.63;5040950;28;20178;-65
2021/08/21 02:54:38;;;;;;;5.77;4.10;;;;;;;17.68;74.43;96868.09;5046883;28;20194;-65
2021/08/21 02:57:03;;;;;;;4.50;4.10;;;;;;;17.63;74.57;96865.47;5043925;28;20261;-64
2021/08/21 02:59:29;;;;;;;4.93;4.43;;;;;;;17.59;74.92;96867.84;5044432;28;20197;-64
2021/08/21 03:01:54;;;;;;;4.37;3.97;;;;;;;17.63;74.38;96866.25;5050477;28;20265;-65
2021/08/21 03:04:19;;;;;;;4.37;3.97;;;;;;;17.56;74.59;96871.00;5047019;28;20233;-65
2021/08/21 03:06:45;;;;;;;6.13;4.27;;;;;;;17.48;74.64;96868.13;5037086;28;20202;-65
2021/08/21 03:09:10;;;;;;;7.23;4.23;;;;;;;17.48;75.17;96868.13;5047399;28;20273;-65
2021/08/21 03:11:36;;;;;;;7.93;4.60;;;;;;;17.50;74.88;96869.44;5045150;28;20320;-65
2021/08/21 03:14:01;;;;;;;4.53;3.73;;;;;;;17.46;74.90;96868.38;5040646;28;20189;-65
2021/08/21 03:16:27;;;;;;;6.57;4.07;;;;;;;17.59;74.40;96867.03;5047845;28;20189;-64
2021/08/21 03:18:52;;;;;;;5.23;3.93;;;;;;;17.52;74.77;96866.53;5046456;28;20200;-66
2021/08/21 03:21:17;;;;;;;5.13;4.00;;;;;;;17.43;75.10;96866.28;5039727;28;20191;-65
2021/08/21 03:23:43;;;;;;;5.03;3.97;;;;;;;17.41;74.83;96869.19;5035028;28;20191;-65
2021/08/21 03:26:09;;;;;;;4.27;3.53;;;;;;;17.36;74.94;96868.41;5038952;28;20210;-65
2021/08/21 03:28:35;;;;;;;4.30;3.50;;;;;;;17.59;74.23;96867.84;5041302;28;20193;-65
2021/08/21 03:31:00;;;;;;;5.20;3.83;;;;;;;17.56;74.45;96868.38;5047679;28;20192;-65
2021/08/21 03:33:25;;;;;;;3.73;3.33;;;;;;;17.62;73.54;96866.53;5039777;28;20184;-65
2021/08/21 03:35:51;;;;;;;6.80;3.57;;;;;;;17.51;74.03;96868.38;5043627;28;20551;-65
2021/08/21 03:38:17;;;;;;;3.67;3.33;;;;;;;17.45;74.46;96864.16;5044825;28;20182;-65
2021/08/21 03:40:42;;;;;;;4.17;3.77;;;;;;;17.33;75.01;96866.31;5036814;28;20241;-65
2021/08/21 03:43:07;;;;;;;4.83;3.80;;;;;;;17.26;75.26;96863.13;5043704;28;20179;-65
2021/08/21 03:45:33;;;;;;;4.13;3.73;;;;;;;17.44;74.40;96865.22;5026162;28;20254;-65
2021/08/21 03:47:59;;;;;;;5.07;3.33;;;;;;;17.41;74.75;96866.56;5050323;28;20203;-66
2021/08/21 03:50:24;;;;;;;4.70;3.63;;;;;;;17.38;74.66;96864.44;5037673;28;20197;-66
2021/08/21 03:52:49;;;;;;;3.63;3.30;;;;;;;17.47;74.08;96867.34;5045377;28;20189;-66
2021/08/21 03:55:15;;;;;;;3.50;3.20;;;;;;;17.46;73.92;96863.09;5039772;28;20191;-65
2021/08/21 03:57:41;;;;;;;3.50;3.20;;;;;;;17.24;75.03;96859.94;5049255;28;20182;-65
2021/08/21 04:00:07;;;;;;;3.57;3.10;;;;;;;17.32;74.48;96859.41;5047366;28;20510;-66
2021/08/21 04:02:33;;;;;;;5.50;3.37;;;;;;;17.19;75.41;96865.25;5039577;28;20187;-66
2021/08/21 04:04:58;;;;;;;5.17;3.13;;;;;;;17.09;76.02;96860.75;5047937;28;20197;-64
2021/08/21 04:07:24;;;;;;;4.60;3.40;;;;;;;17.17;75.38;96865.50;5037912;28;21047;-65
2021/08/21 04:09:49;;;;;;;3.60;3.30;;;;;;;17.23;75.10;96874.25;5043256;28;20178;-64
2021/08/21 04:12:16;;;;;;;3.47;3.10;;;;;;;17.13;75.55;96861.81;5044420;28;20189;-64
2021/08/21 04:14:41;;;;;;;3.60;2.97;;;;;;;17.18;75.39;96869.75;5038409;28;20185;-64
2021/08/21 04:17:07;;;;;;;3.37;3.07;;;;;;;17.22;75.16;96867.38;5038106;28;20191;-64
2021/08/21 04:19:32;;;;;;;3.40;3.10;;;;;;;17.18;75.20;96861.00;5037084;28;20183;-64
2021/08/21 04:21:58;;;;;;;6.33;3.30;;;;;;;17.09;75.77;96879.31;5033063;28;20186;-64
2021/08/21 04:24:23;;;;;;;4.03;3.07;;;;;;;17.18;75.57;96874.25;5046332;28;20265;-64
2021/08/21 04:26:48;;;;;;;3.50;3.20;;;;;;;17.16;75.61;96866.59;5032738;28;20702;-64
2021/08/21 04:29:14;;;;;;;3.90;3.10;;;;;;;17.27;74.96;96876.13;5043332;28;20184;-64
2021/08/21 04:31:40;;;;;;;4.00;3.20;;;;;;;17.45;74.30;96880.84;5037170;28;20248;-64
2021/08/21 04:34:05;;;;;;;5.50;3.47;;;;;;;17.27;75.23;96875.31;5036748;28;20187;-64
2021/08/21 04:36:31;;;;;;;3.50;3.20;;;;;;;17.33;74.88;96869.72;5045734;28;20198;-65
2021/08/21 04:38:56;;;;;;;3.37;3.07;;;;;;;17.43;74.67;96877.69;5049641;28;20190;-64
2021/08/21 04:41:22;;;;;;;4.37;2.73;;;;;;;17.57;73.81;96872.59;5032909;28;20230;-64
2021/08/21 04:43:47;;;;;;;3.67;3.10;;;;;;;17.59;73.64;96880.31;5046536;28;20207;-64
2021/08/21 04:46:12;;;;;;;3.10;2.80;;;;;;;17.59;73.89;96881.09;5039599;28;20206;-64
2021/08/21 04:48:38;;;;;;;3.37;2.83;;;;;;;17.71;73.53;96883.50;5037590;28;20541;-64
2021/08/21 04:51:03;;;;;;;3.37;3.00;;;;;;;17.82;73.01;96880.53;5033491;28;20589;-64
2021/08/21 04:53:29;;;;;;;3.13;2.83;;;;;;;17.96;72.77;96885.25;5044027;28;20243;-64
2021/08/21 04:55:54;;;;;;;3.10;2.70;;;;;;;18.05;72.26;96886.31;5046399;28;20530;-64
2021/08/21 04:58:20;;;;;;;3.20;2.90;;;;;;;18.17;71.88;96884.09;5033563;28;20197;-64
2021/08/21 05:00:45;;;;;;;3.37;3.03;;;;;;;18.39;71.11;96886.41;5040872;28;20205;-64
2021/08/21 05:03:11;;;;;;;3.80;3.40;;;;;;;18.63;70.39;96884.69;5039973;28;20216;-64
2021/08/21 05:05:37;;;;;;;3.40;3.10;;;;;;;18.87;69.86;96879.50;5042623;28;20214;-64
2021/08/21 05:08:02;;;;;;;3.17;2.87;;;;;;;19.18;68.82;96893.31;5039971;28;20709;-64
2021/08/21 05:10:28;;;;;;;3.07;2.77;;;;;;;19.48;68.00;96891.25;5045760;28;20190;-64
2021/08/21 05:12:53;;;;;;;5.22;3.05;;;;;;;19.82;66.49;96899.16;5034752;28;20694;-64
2021/08/21 05:15:19;;;;;;;4.55;3.10;;;;;;;20.05;65.71;96892.25;5050141;28;20256;-65
2021/08/21 05:17:45;;;;;;;5.22;3.20;;;;;;;20.31;64.86;96901.53;5043916;28;20265;-64
2021/08/21 05:20:18;;;;;;;5.25;3.40;;;;;;;20.57;63.82;96895.84;5047854;28;20635;-64
2021/08/21 05:25:15;;;;;;;3.05;2.80;;;;;;;21.00;62.27;96896.56;5038543;28;20183;-68
2021/08/21 05:27:40;;;;;;;3.17;2.83;;;;;;;21.03;62.08;96894.13;5046839;28;20643;-67
2021/08/21 05:30:07;;;;;;;3.58;2.95;;;;;;;21.03;62.10;96891.44;5034483;28;20178;-67
2021/08/21 05:32:33;;;;;;;6.75;3.20;;;;;;;21.03;61.81;96891.44;5044548;28;20217;-67
2021/08/21 05:34:58;;;;;;;3.95;3.55;;;;;;;21.05;61.99;96899.97;5047601;28;20242;-66
2021/08/21 05:37:24;;;;;;;4.68;3.30;;;;;;;21.03;62.32;96891.44;5035236;28;20208;-67
2021/08/21 05:39:50;;;;;;;3.63;3.08;;;;;;;20.97;62.75;96895.28;5041491;28;20196;-68
2021/08/21 05:42:15;;;;;;;5.00;3.45;;;;;;;20.94;62.55;96889.75;5032333;28;20199;-68
2021/08/21 05:44:40;;;;;;;5.97;3.35;;;;;;;20.81;63.29;96896.59;5031940;28;20186;-66
2021/08/21 05:47:06;;;;;;;4.38;3.15;;;;;;;20.81;63.21;96901.91;5047238;28;20681;-67
2021/08/21 05:49:31;;;;;;;3.97;3.25;;;;;;;20.91;62.84;96901.75;5045125;28;20235;-68
2021/08/21 05:51:57;;;;;;;3.97;3.28;;;;;;;20.98;62.70;96891.53;5041229;28;20186;-69
2021/08/21 05:54:22;;;;;;;3.47;3.17;;;;;;;21.17;62.24;96904.88;5035159;28;20189;-67
2021/08/21 05:56:48;;;;;;;3.95;3.58;;;;;;;21.09;62.60;96900.94;5044349;28;20191;-67
2021/08/21 05:59:13;;;;;;;5.10;3.30;;;;;;;21.07;62.55;96905.78;5046521;28;20273;-69
2021/08/21 06:01:38;;;;;;;13.18;4.05;;;;;;;21.18;62.34;96911.00;5047084;28;20194;-68
2021/08/21 06:04:06;;;;;;;4.22;3.58;;;;;;;21.32;62.20;96907.28;5048917;28;20681;-65
2021/08/21 06:06:36;;;;;;;5.10;3.78;;;;;;;21.40;62.26;96905.84;5041341;28;20206;-65
2021/08/21 06:09:02;;;;;;;5.22;3.65;;;;;;;21.46;62.04;96915.31;5051360;28;20654;-65
2021/08/21 06:11:27;;;;;;;3.70;3.40;;;;;;;21.56;62.37;96912.47;5038997;28;20462;-65
2021/08/21 06:13:52;;;;;;;5.93;3.63;;;;;;;21.56;62.27;96913.28;5045436;28;20186;-66
2021/08/21 06:16:18;;;;;;;5.68;3.65;;;;;;;21.61;62.36;96920.41;5042839;28;20194;-66
2021/08/21 06:18:43;;;;;;;6.28;4.15;;;;;;;21.56;62.18;96909.81;5036228;28;20187;-66
2021/08/21 06:21:08;;;;;;;4.05;3.47;;;;;;;21.63;61.94;96920.09;5035800;28;20187;-67
2021/08/21 06:23:34;;;;;;;4.00;3.63;;;;;;;21.49;62.90;96914.72;5041207;28;20644;-66
2021/08/21 06:26:00;;;;;;;4.85;3.78;;;;;;;21.64;62.31;96916.34;5036847;28;20198;-66
2021/08/21 06:28:25;;;;;;;4.78;4.32;;;;;;;21.51;62.89;96913.34;5048046;28;20220;-67
2021/08/21 06:30:50;;;;;;;4.15;3.67;;;;;;;21.45;62.94;96919.06;5041022;28;20635;-67
2021/08/21 06:33:16;;;;;;;5.40;3.42;;;;;;;21.47;63.35;96914.22;5041176;28;20276;-67
2021/08/21 06:35:41;;;;;;;4.25;3.85;;;;;;;21.39;63.35;96918.38;5043267;28;20214;-66
2021/08/21 06:38:07;;;;;;;5.45;4.03;;;;;;;21.35;64.06;96921.88;5038668;28;20187;-67
2021/08/21 06:40:32;;;;;;;4.80;4.15;;;;;;;21.48;64.00;96923.81;5038042;28;20226;-67
2021/08/21 06:42:57;;;;;;;5.07;3.65;;;;;;;21.57;63.92;96928.19;5038027;28;20214;-67
2021/08/21 06:45:23;;;;;;;4.35;3.92;;;;;;;21.75;62.74;96921.19;5047630;28;20229;-66
2021/08/21 06:47:48;;;;;;;5.28;3.88;;;;;;;21.93;62.00;96922.22;5045461;28;20194;-67
2021/08/21 06:50:13;;;;;;;4.50;4.07;;;;;;;22.15;60.90;96921.56;5045508;28;20195;-66
2021/08/21 06:52:39;;;;;;;5.18;4.20;;;;;;;22.45;59.65;96914.81;5042425;28;20543;-67
2021/08/21 06:55:05;;;;;;;5.82;4.43;;;;;;;22.48;59.71;96916.88;5042963;28;20182;-67
2021/08/21 06:57:31;;;;;;;4.72;4.05;;;;;;;22.46;59.50;96922.50;5038540;28;20516;-66
2021/08/21 06:59:57;;;;;;;5.45;4.30;;;;;;;22.22;58.86;96917.41;5045088;28;20620;-66
2021/08/21 07:02:24;;;;;;;6.32;3.92;;;;;;;22.15;59.93;96917.00;5040665;28;20190;-66
2021/08/21 07:04:49;;;;;;;5.10;4.00;;;;;;;22.38;59.85;96910.66;5036614;28;20187;-66
2021/08/21 07:07:14;;;;;;;4.32;3.90;;;;;;;22.50;59.84;96917.38;5038867;28;20565;-66
2021/08/21 07:09:40;;;;;;;4.28;3.80;;;;;;;22.64;59.91;96913.59;5036033;28;20179;-65
2021/08/21 07:12:06;;;;;;;4.97;3.00;;;;;;;22.94;59.86;96920.19;5038326;28;20601;-66
2021/08/21 07:14:31;;;;;;;4.65;3.45;;;;;;;23.06;57.53;96912.41;5045240;28;20189;-66
2021/08/21 07:16:56;;;;;;;3.80;3.50;;;;;;;23.15;56.65;96918.59;5040846;28;20546;-66
2021/08/21 07:19:22;;;;;;;3.90;3.55;;;;;;;22.95;56.68;96912.94;5050918;28;20197;-67
2021/08/21 07:21:52;;;;;;;4.20;3.35;;;;;;;22.90;57.13;96915.75;5043573;28;20310;-67
2021/08/21 07:24:18;;;;;;;4.85;3.20;;;;;;;22.82;57.49;96917.22;5034682;28;20217;-66
2021/08/21 07:26:43;;;;;;;5.78;4.13;;;;;;;22.83;57.11;96926.03;5038837;28;20299;-66
2021/08/21 07:29:09;;;;;;;3.42;3.13;;;;;;;23.06;57.25;96911.63;5043111;28;20276;-66
2021/08/21 07:31:34;;;;;;;5.18;3.28;;;;;;;23.25;55.75;96914.88;5037731;28;20183;-66
2021/08/21 07:33:59;;;;;;;4.30;3.90;;;;;;;23.26;55.75;96918.34;5040897;28;20190;-66
2021/08/21 07:36:25;;;;;;;6.60;3.78;;;;;;;23.39;55.92;96912.94;5047657;28;20186;-66
2021/08/21 07:38:52;;;;;;;4.57;3.80;;;;;;;23.47;55.13;96916.78;5036894;28;20271;-66
2021/08/21 07:41:18;;;;;;;6.60;3.72;;;;;;;23.67;54.85;96918.97;5041560;28;20235;-66
2021/08/21 07:43:43;;;;;;;4.50;4.10;;;;;;;23.78;54.43;96927.53;5042234;28;20186;-66
2021/08/21 07:46:09;;;;;;;5.40;4.03;;;;;;;23.67;55.33;96921.66;5044812;28;20209;-66
2021/08/21 07:48:34;;;;;;;4.28;3.88;;;;;;;23.49;55.48;96917.28;5037553;28;20188;-66
2021/08/21 07:50:59;;;;;;;4.70;4.20;;;;;;;23.60;55.12;96918.59;5039362;28;20548;-65
2021/08/21 07:53:25;;;;;;;4.53;3.72;;;;;;;23.70;55.60;96921.00;5030070;28;20232;-66
2021/08/21 07:55:50;;;;;;;4.70;4.22;;;;;;;23.58;54.65;96918.09;5032613;28;20191;-66
2021/08/21 07:58:16;;;;;;;4.72;3.67;;;;;;;23.73;53.93;96922.31;5034137;28;20553;-66
2021/08/21 08:00:41;;;;;;;4.60;3.63;;;;;;;23.88;53.98;96924.56;5044379;28;20210;-66
2021/08/21 08:03:11;;;;;;;4.38;3.70;;;;;;;23.99;53.58;96921.31;5043936;28;20197;-66
2021/08/21 08:05:37;;;;;;;4.40;3.47;;;;;;;23.98;53.52;96924.28;5047829;28;20264;-66
2021/08/21 08:08:03;;;;;;;5.97;3.60;;;;;;;23.88;53.62;96921.91;5036225;28;20190;-66
2021/08/21 08:10:28;;;;;;;6.45;3.65;;;;;;;23.66;54.20;96928.09;5047536;28;20199;-66
2021/08/21 08:12:53;;;;;;;4.28;3.45;;;;;;;23.61;53.83;96928.22;5040937;28;20192;-66
2021/08/21 08:15:19;;;;;;;4.18;3.63;;;;;;;23.57;54.09;96914.63;5040598;28;20186;-66
2021/08/21 08:17:44;;;;;;;3.90;3.20;;;;;;;23.74;53.42;96918.53;5039808;28;20217;-66
2021/08/21 08:20:11;;;;;;;4.97;3.60;;;;;;;23.79;53.65;96931.78;5066753;28;20183;-66
2021/08/21 08:22:36;;;;;;;6.47;3.38;;;;;;;23.95;53.22;96920.38;5044290;28;20178;-66
2021/08/21 08:25:02;;;;;;;3.92;3.50;;;;;;;24.19;53.30;96920.00;5040536;28;20529;-66
2021/08/21 08:27:27;;;;;;;3.35;3.05;;;;;;;24.38;52.34;96933.13;5040343;28;20241;-66
2021/08/21 08:29:52;;;;;;;4.63;3.53;;;;;;;24.35;52.91;96923.06;5040233;28;20186;-66
2021/08/21 08:32:18;;;;;;;5.25;3.92;;;;;;;24.35;52.67;96929.19;5035407;28;20189;-66
2021/08/21 08:34:43;;;;;;;4.18;3.78;;;;;;;24.42;53.14;96926.03;5037884;28;20276;-66
2021/08/21 08:37:12;;;;;;;4.65;3.85;;;;;;;24.09;53.47;96928.28;5051190;28;20193;-66
2021/08/21 08:39:41;;;;;;;4.93;3.83;;;;;;;23.95;53.97;96925.72;5036429;28;20201;-66
2021/08/21 08:42:21;;;;;;;4.60;4.00;;;;;;;24.11;53.80;96926.09;5066091;28;20570;-65
2021/08/21 08:44:46;;;;;;;4.07;3.67;;;;;;;24.37;53.46;96931.56;5053814;28;20213;-65
2021/08/21 08:47:17;;;;;;;4.88;4.32;;;;;;;24.30;53.75;96925.84;5065232;28;20638;-65
2021/08/21 08:49:46;;;;;;;4.32;3.92;;;;;;;24.30;53.76;96923.97;5058023;28;20190;-66
2021/08/21 08:52:13;;;;;;;4.63;4.20;;;;;;;24.38;54.41;96923.22;5059181;28;20517;-65
2021/08/21 08:54:39;;;;;;;4.28;3.88;;;;;;;24.16;54.40;96919.81;5058748;28;20190;-66
2021/08/21 08:57:04;;;;;;;5.00;4.05;;;;;;;24.20;54.84;96918.91;5055219;28;20670;-65
2021/08/21 08:59:32;;;;;;;4.80;3.95;;;;;;;24.51;53.83;96931.44;5053690;28;20178;-65
2021/08/21 09:01:57;;;;;;;5.65;3.97;;;;;;;24.32;54.21;96921.78;5055715;28;20220;-65
2021/08/21 09:04:25;;;;;;;4.20;3.70;;;;;;;24.30;54.68;96923.16;5058031;28;20200;-65
2021/08/21 09:06:52;;;;;;;6.18;4.65;;;;;;;24.18;54.20;96926.47;5052054;28;20178;-65
2021/08/21 09:09:19;;;;;;;4.97;3.50;;;;;;;23.98;55.69;96926.97;5056792;28;20185;-65
2021/08/21 09:11:47;;;;;;;6.05;3.80;;;;;;;23.99;56.30;96931.25;5058165;28;20185;-65
2021/08/21 09:14:28;;;;;;;7.07;4.43;;;;;;;24.12;56.23;96926.88;5055471;28;20190;-66
2021/08/21 09:17:13;;;;;;;5.53;4.28;;;;;;;24.25;56.01;96924.09;5049731;28;20647;-65
2021/08/21 09:19:39;;;;;;;5.72;4.22;;;;;;;24.48;55.16;96921.31;5064197;28;20181;-66
2021/08/21 09:22:07;;;;;;;4.35;3.95;;;;;;;24.64;55.18;96927.81;5054447;28;20272;-66
2021/08/21 09:24:34;;;;;;;4.85;4.38;;;;;;;24.62;54.25;96927.38;5052365;28;20178;-66
2021/08/21 09:27:24;;;;;;;6.07;4.45;;;;;;;24.84;54.62;96928.03;5057230;28;20268;-66
2021/08/21 09:30:13;;;;;;;6.18;4.07;;;;;;;24.82;54.02;96919.50;5062197;28;20188;-66
2021/08/21 09:32:40;;;;;;;4.90;3.70;;;;;;;24.95;53.68;96922.38;5050638;28;20181;-66
2021/08/21 09:35:10;;;;;;;4.82;3.80;;;;;;;24.92;53.42;96925.66;5053097;28;20674;-66
2021/08/21 09:37:46;;;;;;;5.55;4.07;;;;;;;24.91;54.34;96926.78;5047909;28;20235;-66
2021/08/21 09:40:25;;;;;;;6.03;3.60;;;;;;;24.98;53.55;96927.09;5061806;28;20279;-66
2021/08/21 09:42:50;;;;;;;5.88;3.65;;;;;;;25.08;53.54;96926.78;5061088;28;20181;-66
2021/08/21 09:45:20;;;;;;;4.80;4.00;;;;;;;25.12;54.20;96927.75;5056492;28;20186;-66
2021/08/21 09:47:45;;;;;;;3.72;3.30;;;;;;;25.18;53.34;96921.91;5052098;28;20182;-66
2021/08/21 09:50:16;;;;;;;4.68;3.75;;;;;;;24.99;54.09;96921.41;5048650;28;20185;-66
2021/08/21 09:52:42;;;;;;;4.40;3.78;;;;;;;25.01;53.94;96923.78;5045865;28;20175;-66
2021/08/21 09:55:15;;;;;;;4.15;3.65;;;;;;;25.06;53.85;96918.28;5042852;28;20191;-66
2021/08/21 09:57:41;;;;;;;5.15;3.25;;;;;;;25.24;54.03;96911.78;5047240;28;20300;-66
2021/08/21 10:00:07;;;;;;;4.32;3.70;;;;;;;25.37;52.42;96915.38;5036134;28;20218;-66
2021/08/21 10:02:34;;;;;;;4.75;4.13;;;;;;;25.41;52.73;96913.66;5042986;28;20592;-66
2021/08/21 10:05:00;;;;;;;5.05;3.60;;;;;;;25.51;53.17;96907.97;5048016;28;20192;-66
2021/08/21 10:07:38;;;;;;;4.25;3.80;;;;;;;25.51;52.65;96903.38;5041258;28;20247;-66
2021/08/21 10:10:06;;;;;;;3.20;2.90;;;;;;;25.27;53.49;96901.19;5049531;28;20182;-66
2021/08/21 10:12:34;;;;;;;3.65;3.35;;;;;;;25.24;54.05;96906.44;5042651;28;20190;-64
2021/08/21 10:15:01;;;;;;;3.55;3.25;;;;;;;25.34;54.07;96899.94;5044503;28;20185;-64
2021/08/21 10:17:27;;;;;;;6.15;4.60;;;;;;;25.23;53.48;96902.16;5035256;28;20183;-64
2021/08/21 10:19:54;;;;;;;5.57;3.70;;;;;;;25.38;53.71;96898.97;5049212;28;20516;-64
2021/08/21 10:22:25;;;;;;;3.85;3.55;;;;;;;25.44;53.29;96897.69;5039840;28;20277;-65
2021/08/21 10:24:53;;;;;;;4.05;3.50;;;;;;;25.62;52.88;96891.22;5037991;28;20181;-65
2021/08/21 10:27:26;;;;;;;7.10;3.45;;;;;;;25.65;53.36;96887.09;5039969;28;20175;-65
2021/08/21 10:30:14;;;;;;;5.07;4.65;;;;;;;25.32;53.03;96894.09;5036218;28;20217;-65
2021/08/21 10:32:42;;;;;;;4.43;4.00;;;;;;;25.01;54.25;96892.41;5041883;28;20183;-65
2021/08/21 10:35:12;;;;;;;4.47;4.05;;;;;;;25.35;54.45;96891.56;5046901;28;20208;-65
2021/08/21 10:37:43;;;;;;;5.65;3.83;;;;;;;25.42;54.00;96885.69;5046493;28;20191;-65
2021/08/21 10:40:26;;;;;;;4.85;4.00;;;;;;;25.51;54.04;96881.13;5051161;28;20193;-65
2021/08/21 10:43:00;;;;;;;4.70;3.65;;;;;;;25.66;53.04;96892.16;5047204;28;20643;-65
2021/08/21 10:45:44;;;;;;;4.32;3.92;;;;;;;25.88;52.27;96893.00;5038228;28;20176;-66
2021/08/21 10:48:22;;;;;;;8.32;4.50;;;;;;;25.65;52.24;96887.88;5039098;28;20277;-65
2021/08/21 10:50:51;;;;;;;6.20;4.00;;;;;;;25.90;52.12;96890.81;5044047;28;20572;-65
2021/08/21 10:53:26;;;;;;;4.80;4.00;;;;;;;26.20;51.30;96880.84;5047347;28;20583;-66
2021/08/21 10:55:52;;;;;;;5.15;4.20;;;;;;;26.12;51.16;96882.47;5042150;28;20182;-65
2021/08/21 10:58:53;;;;;;;9.60;4.03;;;;;;;25.95;52.77;96874.50;5044087;28;20192;-66
2021/08/21 11:01:23;;;;;;;4.13;3.42;;;;;;;25.92;52.32;96881.28;5042429;28;20228;-65
2021/08/21 11:03:50;;;;;;;4.35;3.60;;;;;;;26.24;51.44;96882.63;5038535;28;20658;-65
2021/08/21 11:06:16;;;;;;;5.85;4.13;;;;;;;26.03;51.34;96879.81;5034948;28;20183;-65
2021/08/21 11:08:42;;;;;;;8.88;4.05;;;;;;;26.10;51.58;96873.94;5042813;28;20193;-65
2021/08/21 11:11:07;;;;;;;5.78;4.13;;;;;;;26.06;51.94;96881.09;5034915;28;20191;-65
2021/08/21 11:13:59;;;;;;;6.10;4.65;;;;;;;25.85;52.42;96870.28;5039760;28;20195;-64
2021/08/21 11:16:50;;;;;;;6.90;4.80;;;;;;;25.02;54.03;96872.50;5042740;28;20170;-64
2021/08/21 11:19:25;;;;;;;4.30;3.90;;;;;;;25.19;54.68;96872.47;5040207;28;20182;-65
2021/08/21 11:21:51;;;;;;;4.80;4.38;;;;;;;25.90;52.49;96875.47;5042449;28;20224;-65
2021/08/21 11:24:26;;;;;;;5.78;4.10;;;;;;;26.30;51.76;96867.09;5045498;28;20565;-65
2021/08/21 11:27:24;;;;;;;4.93;4.18;;;;;;;26.27;51.50;96863.13;5045606;28;20198;-65
2021/08/21 11:30:05;;;;;;;6.82;3.95;;;;;;;26.60;50.49;96865.91;5038762;28;20197;-65
2021/08/21 11:32:31;;;;;;;3.65;3.35;;;;;;;26.76;49.10;96866.13;5040855;28;20182;-65
2021/08/21 11:34:57;;;;;;;6.60;4.40;;;;;;;26.85;48.85;96859.56;5046308;28;20186;-65
2021/08/21 11:37:23;;;;;;;5.53;3.72;;;;;;;26.56;49.52;96851.56;5038832;28;20212;-65